sensor_id;sensor_type;location;lat;lon;timestamp;pressure;altitude;pressure_sealevel;temperature;humidity
62942;BME280;49042;47.318;19.874;2022-08-19T00:02:16;99961.69;;;24.14;55.54
62942;BME280;49042;47.318;19.874;2022-08-19T00:05:19;99961.22;;;24.28;55.28
62942;BME280;49042;47.318;19.874;2022-08-19T00:08:21;99949.19;;;24.16;55.89
62942;BME280;49042;47.318;19.874;2022-08-19T00:11:23;99951.75;;;24.20;56.12
62942;BME280;49042;47.318;19.874;2022-08-19T00:14:27;99948.37;;;24.14;56.07
62942;BME280;49042;47.318;19.874;2022-08-19T00:17:33;99947.81;;;24.04;56.16
62942;BME280;49042;47.318;19.874;2022-08-19T00:20:35;99944.44;;;23.99;55.59
62942;BME280;49042;47.318;19.874;2022-08-19T00:23:37;99935.56;;;23.99;55.60
62942;BME280;49042;47.318;19.874;2022-08-19T00:26:40;99942.63;;;24.00;55.36
62942;BME280;49042;47.318;19.874;2022-08-19T00:29:42;99934.81;;;23.95;55.23
62942;BME280;49042;47.318;19.874;2022-08-19T00:32:44;99928.53;;;23.96;55.37
62942;BME280;49042;47.318;19.874;2022-08-19T00:35:46;99916.53;;;23.84;55.20
62942;BME280;49042;47.318;19.874;2022-08-19T00:38:56;99909.59;;;24.05;54.78
62942;BME280;49042;47.318;19.874;2022-08-19T00:41:58;99906.44;;;23.94;55.09
62942;BME280;49042;47.318;19.874;2022-08-19T00:45:00;99912.53;;;23.70;55.21
62942;BME280;49042;47.318;19.874;2022-08-19T00:48:03;99907.44;;;23.62;55.16
62942;BME280;49042;47.318;19.874;2022-08-19T00:51:15;99902.69;;;23.72;55.00
62942;BME280;49042;47.318;19.874;2022-08-19T00:54:20;99906.66;;;23.88;54.34
62942;BME280;49042;47.318;19.874;2022-08-19T00:57:38;99902.53;;;23.77;54.32
62942;BME280;49042;47.318;19.874;2022-08-19T01:00:40;99902.53;;;23.77;54.50
62942;BME280;49042;47.318;19.874;2022-08-19T01:03:42;99911.78;;;23.65;55.21
62942;BME280;49042;47.318;19.874;2022-08-19T01:06:58;99921.53;;;23.66;54.86
62942;BME280;49042;47.318;19.874;2022-08-19T01:10:01;99927.38;;;23.49;55.18
62942;BME280;49042;47.318;19.874;2022-08-19T01:13:04;99919.03;;;23.31;55.55
62942;BME280;49042;47.318;19.874;2022-08-19T01:16:09;99916.03;;;23.42;54.67
62942;BME280;49042;47.318;19.874;2022-08-19T01:19:24;99915.81;;;23.50;54.62
62942;BME280;49042;47.318;19.874;2022-08-19T01:22:30;99918.63;;;23.43;54.71
62942;BME280;49042;47.318;19.874;2022-08-19T01:25:52;99917.50;;;23.52;54.62
62942;BME280;49042;47.318;19.874;2022-08-19T01:28:58;99920.16;;;23.52;54.75
62942;BME280;49042;47.318;19.874;2022-08-19T01:32:01;99917.69;;;23.46;54.94
62942;BME280;49042;47.318;19.874;2022-08-19T01:35:04;99907.75;;;23.51;54.81
62942;BME280;49042;47.318;19.874;2022-08-19T01:38:08;99900.28;;;23.36;55.20
62942;BME280;49042;47.318;19.874;2022-08-19T01:41:12;99904.19;;;23.24;55.28
62942;BME280;49042;47.318;19.874;2022-08-19T01:44:15;99906.09;;;23.18;55.62
62942;BME280;49042;47.318;19.874;2022-08-19T01:47:19;99893.91;;;23.11;55.71
62942;BME280;49042;47.318;19.874;2022-08-19T01:50:21;99899.22;;;22.81;57.15
62942;BME280;49042;47.318;19.874;2022-08-19T01:53:24;99903.22;;;22.96;56.49
62942;BME280;49042;47.318;19.874;2022-08-19T01:56:34;99901.28;;;23.01;56.51
62942;BME280;49042;47.318;19.874;2022-08-19T01:59:36;99901.69;;;22.87;56.89
62942;BME280;49042;47.318;19.874;2022-08-19T02:02:37;99910.72;;;23.11;56.57
62942;BME280;49042;47.318;19.874;2022-08-19T02:05:41;99907.06;;;23.16;56.80
62942;BME280;49042;47.318;19.874;2022-08-19T02:08:43;99907.63;;;23.27;56.53
62942;BME280;49042;47.318;19.874;2022-08-19T02:11:48;99895.19;;;23.28;56.40
62942;BME280;49042;47.318;19.874;2022-08-19T02:14:50;99899.50;;;23.32;56.14
62942;BME280;49042;47.318;19.874;2022-08-19T02:17:51;99897.09;;;23.23;56.48
62942;BME280;49042;47.318;19.874;2022-08-19T02:20:53;99889.28;;;23.18;56.50
62942;BME280;49042;47.318;19.874;2022-08-19T02:23:56;99889.75;;;23.02;57.25
62942;BME280;49042;47.318;19.874;2022-08-19T02:26:57;99901.87;;;23.11;57.06
62942;BME280;49042;47.318;19.874;2022-08-19T02:30:00;99892.47;;;23.29;56.26
62942;BME280;49042;47.318;19.874;2022-08-19T02:33:02;99889.56;;;23.08;56.92
62942;BME280;49042;47.318;19.874;2022-08-19T02:36:06;99888.50;;;22.84;57.69
62942;BME280;49042;47.318;19.874;2022-08-19T02:39:09;99882.75;;;22.66;58.36
62942;BME280;49042;47.318;19.874;2022-08-19T02:42:11;99888.84;;;22.71;58.10
62942;BME280;49042;47.318;19.874;2022-08-19T02:45:14;99890.03;;;22.59;59.01
62942;BME280;49042;47.318;19.874;2022-08-19T02:48:17;99885.47;;;22.64;58.89
62942;BME280;49042;47.318;19.874;2022-08-19T02:51:30;99880.88;;;22.71;58.34
62942;BME280;49042;47.318;19.874;2022-08-19T02:54:33;99881.88;;;22.65;58.63
62942;BME280;49042;47.318;19.874;2022-08-19T02:57:35;99874.31;;;22.51;58.85
62942;BME280;49042;47.318;19.874;2022-08-19T03:00:42;99878.28;;;22.68;58.43
62942;BME280;49042;47.318;19.874;2022-08-19T03:03:45;99866.69;;;22.39;58.06
62942;BME280;49042;47.318;19.874;2022-08-19T03:06:48;99868.84;;;22.24;59.24
62942;BME280;49042;47.318;19.874;2022-08-19T03:09:50;99860.69;;;22.32;59.42
62942;BME280;49042;47.318;19.874;2022-08-19T03:12:52;99870.53;;;22.28;58.91
62942;BME280;49042;47.318;19.874;2022-08-19T03:15:54;99881.94;;;22.32;58.71
62942;BME280;49042;47.318;19.874;2022-08-19T03:18:56;99871.00;;;22.09;59.84
62942;BME280;49042;47.318;19.874;2022-08-19T03:22:01;99869.66;;;21.94;60.48
62942;BME280;49042;47.318;19.874;2022-08-19T03:25:04;99875.28;;;21.80;61.06
62942;BME280;49042;47.318;19.874;2022-08-19T03:28:06;99875.88;;;21.91;60.74
62942;BME280;49042;47.318;19.874;2022-08-19T03:31:13;99890.91;;;21.92;60.60
62942;BME280;49042;47.318;19.874;2022-08-19T03:34:37;99907.78;;;21.88;61.09
62942;BME280;49042;47.318;19.874;2022-08-19T03:37:39;99910.50;;;21.87;61.01
62942;BME280;49042;47.318;19.874;2022-08-19T03:40:41;99911.06;;;22.01;60.67
62942;BME280;49042;47.318;19.874;2022-08-19T03:43:45;99914.78;;;21.94;60.87
62942;BME280;49042;47.318;19.874;2022-08-19T03:46:57;99928.62;;;22.06;60.56
62942;BME280;49042;47.318;19.874;2022-08-19T03:49:59;99925.09;;;22.05;60.43
62942;BME280;49042;47.318;19.874;2022-08-19T03:53:01;99927.72;;;22.07;60.33
62942;BME280;49042;47.318;19.874;2022-08-19T03:56:03;99930.28;;;22.10;60.56
62942;BME280;49042;47.318;19.874;2022-08-19T03:59:07;99930.47;;;22.03;60.39
62942;BME280;49042;47.318;19.874;2022-08-19T04:02:10;99934.94;;;22.01;60.60
62942;BME280;49042;47.318;19.874;2022-08-19T04:05:13;99925.94;;;22.07;60.61
62942;BME280;49042;47.318;19.874;2022-08-19T04:08:16;99942.69;;;22.11;60.46
62942;BME280;49042;47.318;19.874;2022-08-19T04:11:24;99953.75;;;21.90;60.98
62942;BME280;49042;47.318;19.874;2022-08-19T04:14:44;99955.25;;;22.02;60.91
62942;BME280;49042;47.318;19.874;2022-08-19T04:17:46;99954.81;;;21.83;61.41
62942;BME280;49042;47.318;19.874;2022-08-19T04:20:48;99952.66;;;22.01;61.23
62942;BME280;49042;47.318;19.874;2022-08-19T04:23:51;99952.78;;;22.31;60.03
62942;BME280;49042;47.318;19.874;2022-08-19T04:26:56;99948.25;;;22.35;59.94
62942;BME280;49042;47.318;19.874;2022-08-19T04:29:57;99954.97;;;22.50;59.66
62942;BME280;49042;47.318;19.874;2022-08-19T04:32:59;99957.19;;;22.32;60.17
62942;BME280;49042;47.318;19.874;2022-08-19T04:36:01;99967.91;;;22.28;60.49
62942;BME280;49042;47.318;19.874;2022-08-19T04:39:06;99983.94;;;22.60;59.65
62942;BME280;49042;47.318;19.874;2022-08-19T04:42:09;99980.81;;;22.43;60.08
62942;BME280;49042;47.318;19.874;2022-08-19T04:45:31;99971.84;;;22.47;59.98
62942;BME280;49042;47.318;19.874;2022-08-19T04:48:44;99965.84;;;22.74;59.29
62942;BME280;49042;47.318;19.874;2022-08-19T04:51:51;99961.06;;;22.54;59.97
62942;BME280;49042;47.318;19.874;2022-08-19T04:54:55;99962.66;;;22.61;59.79
62942;BME280;49042;47.318;19.874;2022-08-19T04:57:57;99965.69;;;22.45;60.30
62942;BME280;49042;47.318;19.874;2022-08-19T05:01:00;99972.78;;;22.80;59.75
62942;BME280;49042;47.318;19.874;2022-08-19T05:04:04;99980.66;;;22.83;59.11
62942;BME280;49042;47.318;19.874;2022-08-19T05:07:07;99979.66;;;22.87;59.35
62942;BME280;49042;47.318;19.874;2022-08-19T05:10:09;99973.00;;;22.71;59.82
62942;BME280;49042;47.318;19.874;2022-08-19T05:13:11;99963.00;;;22.82;59.57
62942;BME280;49042;47.318;19.874;2022-08-19T05:16:13;99969.81;;;22.91;59.28
62942;BME280;49042;47.318;19.874;2022-08-19T05:19:15;99965.09;;;23.01;59.04
62942;BME280;49042;47.318;19.874;2022-08-19T05:22:36;99967.53;;;23.10;58.56
62942;BME280;49042;47.318;19.874;2022-08-19T05:25:39;99969.44;;;23.05;59.14
62942;BME280;49042;47.318;19.874;2022-08-19T05:28:42;99976.13;;;23.19;58.87
62942;BME280;49042;47.318;19.874;2022-08-19T05:31:44;99986.94;;;23.43;58.04
62942;BME280;49042;47.318;19.874;2022-08-19T05:34:46;99991.22;;;23.49;58.18
62942;BME280;49042;47.318;19.874;2022-08-19T05:37:48;99992.91;;;23.82;57.61
62942;BME280;49042;47.318;19.874;2022-08-19T05:40:55;99998.22;;;23.82;57.29
62942;BME280;49042;47.318;19.874;2022-08-19T05:43:58;100001.53;;;23.90;57.50
62942;BME280;49042;47.318;19.874;2022-08-19T05:47:04;99994.97;;;24.01;57.03
62942;BME280;49042;47.318;19.874;2022-08-19T05:50:06;99990.84;;;24.19;56.68
62942;BME280;49042;47.318;19.874;2022-08-19T05:53:08;99986.59;;;24.41;55.28
62942;BME280;49042;47.318;19.874;2022-08-19T05:56:14;99988.69;;;24.58;55.32
62942;BME280;49042;47.318;19.874;2022-08-19T05:59:19;99998.72;;;24.49;55.23
62942;BME280;49042;47.318;19.874;2022-08-19T06:02:28;99982.62;;;24.53;55.22
62942;BME280;49042;47.318;19.874;2022-08-19T06:05:32;99986.53;;;24.69;54.89
62942;BME280;49042;47.318;19.874;2022-08-19T06:08:48;99991.13;;;24.64;54.52
62942;BME280;49042;47.318;19.874;2022-08-19T06:11:54;99990.50;;;24.81;54.38
62942;BME280;49042;47.318;19.874;2022-08-19T06:14:58;99996.00;;;25.02;54.52
62942;BME280;49042;47.318;19.874;2022-08-19T06:18:02;99998.28;;;25.13;53.90
62942;BME280;49042;47.318;19.874;2022-08-19T06:21:03;99988.78;;;25.30;52.95
62942;BME280;49042;47.318;19.874;2022-08-19T06:24:08;99980.31;;;25.43;53.09
62942;BME280;49042;47.318;19.874;2022-08-19T06:27:10;99978.25;;;25.50;52.61
62942;BME280;49042;47.318;19.874;2022-08-19T06:30:12;99980.84;;;25.75;52.38
62942;BME280;49042;47.318;19.874;2022-08-19T06:33:13;99978.03;;;26.01;52.05
62942;BME280;49042;47.318;19.874;2022-08-19T06:36:25;99973.38;;;26.06;51.29
62942;BME280;49042;47.318;19.874;2022-08-19T06:39:36;99968.19;;;26.24;50.28
62942;BME280;49042;47.318;19.874;2022-08-19T06:42:39;99962.44;;;26.34;50.62
62942;BME280;49042;47.318;19.874;2022-08-19T06:45:54;99964.66;;;26.45;49.45
62942;BME280;49042;47.318;19.874;2022-08-19T06:48:57;99961.06;;;26.46;49.01
62942;BME280;49042;47.318;19.874;2022-08-19T06:52:00;99966.22;;;26.71;49.06
62942;BME280;49042;47.318;19.874;2022-08-19T06:55:03;99972.38;;;26.93;48.27
62942;BME280;49042;47.318;19.874;2022-08-19T06:58:07;99974.47;;;26.86;48.33
62942;BME280;49042;47.318;19.874;2022-08-19T07:01:09;99981.31;;;27.13;47.50
62942;BME280;49042;47.318;19.874;2022-08-19T07:04:13;99969.56;;;27.36;47.66
62942;BME280;49042;47.318;19.874;2022-08-19T07:07:15;99979.31;;;27.57;46.72
62942;BME280;49042;47.318;19.874;2022-08-19T07:10:20;99973.56;;;27.84;46.28
62942;BME280;49042;47.318;19.874;2022-08-19T07:13:23;99973.38;;;28.07;45.87
62942;BME280;49042;47.318;19.874;2022-08-19T07:16:25;99969.38;;;28.16;44.87
62942;BME280;49042;47.318;19.874;2022-08-19T07:19:30;99980.31;;;28.11;45.26
62942;BME280;49042;47.318;19.874;2022-08-19T07:22:34;99981.81;;;28.34;44.59
62942;BME280;49042;47.318;19.874;2022-08-19T07:25:37;99978.59;;;28.63;43.80
62942;BME280;49042;47.318;19.874;2022-08-19T07:28:42;99984.47;;;28.88;43.90
62942;BME280;49042;47.318;19.874;2022-08-19T07:31:46;99978.84;;;28.93;43.69
62942;BME280;49042;47.318;19.874;2022-08-19T07:34:51;99976.34;;;29.06;42.84
62942;BME280;49042;47.318;19.874;2022-08-19T07:37:53;99972.41;;;29.62;42.49
62942;BME280;49042;47.318;19.874;2022-08-19T07:40:55;99978.22;;;29.87;40.84
62942;BME280;49042;47.318;19.874;2022-08-19T07:43:58;99963.56;;;30.23;40.13
62942;BME280;49042;47.318;19.874;2022-08-19T07:47:05;99973.84;;;30.62;39.31
62942;BME280;49042;47.318;19.874;2022-08-19T07:50:09;99970.87;;;30.82;38.71
62942;BME280;49042;47.318;19.874;2022-08-19T07:53:12;99981.13;;;31.48;38.00
62942;BME280;49042;47.318;19.874;2022-08-19T07:56:14;99972.53;;;32.12;36.11
62942;BME280;49042;47.318;19.874;2022-08-19T07:59:17;99978.31;;;32.33;35.66
62942;BME280;49042;47.318;19.874;2022-08-19T08:02:19;99971.03;;;32.75;35.06
62942;BME280;49042;47.318;19.874;2022-08-19T08:05:21;99968.16;;;33.29;33.50
62942;BME280;49042;47.318;19.874;2022-08-19T08:08:44;99967.94;;;34.17;32.44
62942;BME280;49042;47.318;19.874;2022-08-19T08:12:14;99966.62;;;34.23;31.62
62942;BME280;49042;47.318;19.874;2022-08-19T08:15:36;99976.91;;;34.54;30.43
62942;BME280;49042;47.318;19.874;2022-08-19T08:18:43;99968.00;;;33.93;31.15
62942;BME280;49042;47.318;19.874;2022-08-19T08:21:59;99959.81;;;34.54;30.18
62942;BME280;49042;47.318;19.874;2022-08-19T08:25:11;99957.69;;;35.38;28.83
62942;BME280;49042;47.318;19.874;2022-08-19T08:28:16;99960.47;;;35.60;28.55
62942;BME280;49042;47.318;19.874;2022-08-19T08:31:18;99958.00;;;35.00;29.39
62942;BME280;49042;47.318;19.874;2022-08-19T08:34:20;99948.91;;;35.01;28.59
62942;BME280;49042;47.318;19.874;2022-08-19T08:37:22;99934.19;;;35.27;28.86
62942;BME280;49042;47.318;19.874;2022-08-19T08:40:45;99922.00;;;35.66;27.31
62942;BME280;49042;47.318;19.874;2022-08-19T08:43:49;99916.91;;;35.73;26.49
62942;BME280;49042;47.318;19.874;2022-08-19T08:46:56;99924.84;;;36.19;27.17
62942;BME280;49042;47.318;19.874;2022-08-19T08:50:12;99937.97;;;36.98;25.00
62942;BME280;49042;47.318;19.874;2022-08-19T08:53:17;99955.87;;;36.79;25.08
62942;BME280;49042;47.318;19.874;2022-08-19T08:56:31;99951.00;;;38.06;24.36
62942;BME280;49042;47.318;19.874;2022-08-19T08:59:36;99954.91;;;38.41;22.63
62942;BME280;49042;47.318;19.874;2022-08-19T09:02:39;99945.91;;;38.79;22.46
62942;BME280;49042;47.318;19.874;2022-08-19T09:09:29;99945.31;;;38.47;22.56
62942;BME280;49042;47.318;19.874;2022-08-19T09:16:16;99936.75;;;40.45;20.09
62942;BME280;49042;47.318;19.874;2022-08-19T09:19:21;99929.94;;;39.59;20.90
62942;BME280;49042;47.318;19.874;2022-08-19T09:22:23;99937.78;;;40.26;19.48
62942;BME280;49042;47.318;19.874;2022-08-19T09:25:27;99931.94;;;39.94;19.99
62942;BME280;49042;47.318;19.874;2022-08-19T09:28:30;99930.88;;;40.32;19.53
62942;BME280;49042;47.318;19.874;2022-08-19T09:31:33;99943.69;;;40.66;18.92
62942;BME280;49042;47.318;19.874;2022-08-19T09:34:34;99944.50;;;40.05;20.02
62942;BME280;49042;47.318;19.874;2022-08-19T09:37:44;99948.84;;;41.21;18.59
62942;BME280;49042;47.318;19.874;2022-08-19T09:40:46;99940.06;;;42.77;18.11
62942;BME280;49042;47.318;19.874;2022-08-19T09:43:50;99948.09;;;42.22;17.81
62942;BME280;49042;47.318;19.874;2022-08-19T09:46:53;99944.78;;;43.00;17.35
62942;BME280;49042;47.318;19.874;2022-08-19T09:49:55;99942.13;;;44.56;15.98
62942;BME280;49042;47.318;19.874;2022-08-19T09:52:58;99951.44;;;45.88;14.87
62942;BME280;49042;47.318;19.874;2022-08-19T09:56:01;99944.88;;;43.39;17.17
62942;BME280;49042;47.318;19.874;2022-08-19T09:59:04;99936.12;;;44.82;16.23
62942;BME280;49042;47.318;19.874;2022-08-19T10:02:06;99932.22;;;44.16;15.86
62942;BME280;49042;47.318;19.874;2022-08-19T10:05:11;99934.03;;;43.70;16.29
62942;BME280;49042;47.318;19.874;2022-08-19T10:08:34;99931.16;;;43.39;16.51
62942;BME280;49042;47.318;19.874;2022-08-19T10:11:40;99919.59;;;42.56;16.99
62942;BME280;49042;47.318;19.874;2022-08-19T10:14:52;99924.53;;;41.10;18.14
62942;BME280;49042;47.318;19.874;2022-08-19T10:17:55;99911.63;;;43.34;16.90
62942;BME280;49042;47.318;19.874;2022-08-19T10:21:06;99922.06;;;43.39;16.20
62942;BME280;49042;47.318;19.874;2022-08-19T10:24:12;99925.19;;;43.59;16.74
62942;BME280;49042;47.318;19.874;2022-08-19T10:27:14;99916.00;;;42.56;17.56
62942;BME280;49042;47.318;19.874;2022-08-19T10:30:16;99908.41;;;40.20;20.44
62942;BME280;49042;47.318;19.874;2022-08-19T10:33:18;99905.19;;;40.51;19.57
62942;BME280;49042;47.318;19.874;2022-08-19T10:36:40;99897.44;;;39.29;20.12
62942;BME280;49042;47.318;19.874;2022-08-19T10:39:58;99891.34;;;38.22;21.58
62942;BME280;49042;47.318;19.874;2022-08-19T10:43:00;99883.84;;;37.46;23.04
62942;BME280;49042;47.318;19.874;2022-08-19T10:46:01;99882.56;;;37.51;22.99
62942;BME280;49042;47.318;19.874;2022-08-19T10:49:05;99883.22;;;37.13;23.42
62942;BME280;49042;47.318;19.874;2022-08-19T10:52:07;99883.22;;;37.13;23.15
62942;BME280;49042;47.318;19.874;2022-08-19T10:55:39;99888.31;;;36.96;24.06
62942;BME280;49042;47.318;19.874;2022-08-19T10:59:00;99877.72;;;36.51;24.85
62942;BME280;49042;47.318;19.874;2022-08-19T11:02:04;99867.34;;;36.57;24.45
62942;BME280;49042;47.318;19.874;2022-08-19T11:05:08;99868.81;;;36.39;24.32
62942;BME280;49042;47.318;19.874;2022-08-19T11:08:14;99871.91;;;36.03;24.30
62942;BME280;49042;47.318;19.874;2022-08-19T11:11:23;99871.97;;;36.45;23.79
62942;BME280;49042;47.318;19.874;2022-08-19T11:14:25;99855.00;;;36.21;23.76
62942;BME280;49042;47.318;19.874;2022-08-19T11:17:32;99860.31;;;36.01;24.56
62942;BME280;49042;47.318;19.874;2022-08-19T11:20:34;99861.31;;;36.21;24.92
62942;BME280;49042;47.318;19.874;2022-08-19T11:23:36;99862.59;;;36.27;23.30
62942;BME280;49042;47.318;19.874;2022-08-19T11:26:39;99857.34;;;36.26;23.37
62942;BME280;49042;47.318;19.874;2022-08-19T11:29:42;99864.34;;;36.60;23.36
62942;BME280;49042;47.318;19.874;2022-08-19T11:32:44;99866.94;;;36.40;22.76
62942;BME280;49042;47.318;19.874;2022-08-19T11:35:49;99858.06;;;36.38;23.88
62942;BME280;49042;47.318;19.874;2022-08-19T11:38:52;99858.59;;;36.53;24.30
62942;BME280;49042;47.318;19.874;2022-08-19T11:41:54;99857.97;;;36.08;24.20
62942;BME280;49042;47.318;19.874;2022-08-19T11:44:57;99853.84;;;36.14;23.72
62942;BME280;49042;47.318;19.874;2022-08-19T11:47:58;99853.81;;;35.92;24.90
62942;BME280;49042;47.318;19.874;2022-08-19T11:51:04;99862.22;;;35.89;24.65
62942;BME280;49042;47.318;19.874;2022-08-19T11:54:07;99852.03;;;36.24;23.38
62942;BME280;49042;47.318;19.874;2022-08-19T11:57:09;99854.50;;;36.37;23.48
62942;BME280;49042;47.318;19.874;2022-08-19T12:00:11;99857.75;;;36.52;23.44
62942;BME280;49042;47.318;19.874;2022-08-19T12:03:14;99850.25;;;36.45;23.49
62942;BME280;49042;47.318;19.874;2022-08-19T12:06:20;99846.78;;;36.64;23.47
62942;BME280;49042;47.318;19.874;2022-08-19T12:09:24;99845.38;;;36.90;23.30
62942;BME280;49042;47.318;19.874;2022-08-19T12:12:31;99854.16;;;36.52;23.13
62942;BME280;49042;47.318;19.874;2022-08-19T12:15:37;99853.81;;;36.45;23.09
62942;BME280;49042;47.318;19.874;2022-08-19T12:18:39;99845.16;;;36.20;22.75
62942;BME280;49042;47.318;19.874;2022-08-19T12:21:44;99838.47;;;36.66;23.15
62942;BME280;49042;47.318;19.874;2022-08-19T12:24:45;99834.16;;;37.14;22.05
62942;BME280;49042;47.318;19.874;2022-08-19T12:27:47;99822.84;;;37.39;22.58
62942;BME280;49042;47.318;19.874;2022-08-19T12:30:58;99819.16;;;37.30;23.12
62942;BME280;49042;47.318;19.874;2022-08-19T12:33:59;99825.44;;;37.60;21.62
62942;BME280;49042;47.318;19.874;2022-08-19T12:37:05;99820.75;;;37.53;22.07
62942;BME280;49042;47.318;19.874;2022-08-19T12:40:08;99826.56;;;37.18;22.52
62942;BME280;49042;47.318;19.874;2022-08-19T12:43:10;99826.00;;;37.44;21.78
62942;BME280;49042;47.318;19.874;2022-08-19T12:46:13;99820.41;;;37.76;21.25
62942;BME280;49042;47.318;19.874;2022-08-19T12:49:18;99817.94;;;37.83;21.37
62942;BME280;49042;47.318;19.874;2022-08-19T12:52:40;99818.44;;;37.48;21.76
62942;BME280;49042;47.318;19.874;2022-08-19T12:55:43;99815.44;;;38.76;20.32
62942;BME280;49042;47.318;19.874;2022-08-19T12:58:45;99823.22;;;40.51;19.17
62942;BME280;49042;47.318;19.874;2022-08-19T13:01:49;99821.72;;;39.87;18.46
62942;BME280;49042;47.318;19.874;2022-08-19T13:04:51;99825.84;;;40.26;18.13
62942;BME280;49042;47.318;19.874;2022-08-19T13:07:54;99808.72;;;42.67;16.23
62942;BME280;49042;47.318;19.874;2022-08-19T13:10:57;99811.22;;;45.14;14.20
62942;BME280;49042;47.318;19.874;2022-08-19T13:14:00;99804.63;;;45.95;13.49
62942;BME280;49042;47.318;19.874;2022-08-19T13:17:03;99804.31;;;45.76;13.12
62942;BME280;49042;47.318;19.874;2022-08-19T13:20:07;99806.50;;;47.06;12.64
62942;BME280;49042;47.318;19.874;2022-08-19T13:23:10;99803.31;;;47.30;12.15
62942;BME280;49042;47.318;19.874;2022-08-19T13:26:12;99798.53;;;44.91;13.86
62942;BME280;49042;47.318;19.874;2022-08-19T13:29:14;99793.00;;;43.32;14.68
62942;BME280;49042;47.318;19.874;2022-08-19T13:32:35;99785.06;;;45.03;13.89
62942;BME280;49042;47.318;19.874;2022-08-19T13:35:59;99792.78;;;44.18;14.84
62942;BME280;49042;47.318;19.874;2022-08-19T13:39:02;99794.41;;;45.53;13.73
62942;BME280;49042;47.318;19.874;2022-08-19T13:42:04;99793.91;;;46.14;13.21
62942;BME280;49042;47.318;19.874;2022-08-19T13:45:07;99791.88;;;47.20;12.20
62942;BME280;49042;47.318;19.874;2022-08-19T13:48:10;99783.81;;;47.25;12.13
62942;BME280;49042;47.318;19.874;2022-08-19T13:51:12;99780.84;;;45.51;13.28
62942;BME280;49042;47.318;19.874;2022-08-19T13:54:13;99778.09;;;45.87;12.79
62942;BME280;49042;47.318;19.874;2022-08-19T13:57:15;99774.59;;;45.13;14.03
62942;BME280;49042;47.318;19.874;2022-08-19T14:00:18;99776.88;;;45.61;13.39
62942;BME280;49042;47.318;19.874;2022-08-19T14:03:20;99771.13;;;45.91;13.34
62942;BME280;49042;47.318;19.874;2022-08-19T14:06:22;99775.28;;;47.26;12.99
62942;BME280;49042;47.318;19.874;2022-08-19T14:09:24;99769.53;;;45.68;13.04
62942;BME280;49042;47.318;19.874;2022-08-19T14:12:26;99781.53;;;42.81;15.13
62942;BME280;49042;47.318;19.874;2022-08-19T14:15:29;99782.94;;;42.04;15.76
62942;BME280;49042;47.318;19.874;2022-08-19T14:18:31;99775.72;;;43.08;14.92
62942;BME280;49042;47.318;19.874;2022-08-19T14:21:33;99773.09;;;44.14;14.48
62942;BME280;49042;47.318;19.874;2022-08-19T14:24:41;99768.50;;;43.84;14.80
62942;BME280;49042;47.318;19.874;2022-08-19T14:27:48;99753.09;;;44.36;14.30
62942;BME280;49042;47.318;19.874;2022-08-19T14:30:50;99748.19;;;42.45;15.59
62942;BME280;49042;47.318;19.874;2022-08-19T14:33:57;99753.34;;;42.00;17.66
62942;BME280;49042;47.318;19.874;2022-08-19T14:36:59;99740.19;;;40.96;16.96
62942;BME280;49042;47.318;19.874;2022-08-19T14:40:03;99739.22;;;40.01;17.60
62942;BME280;49042;47.318;19.874;2022-08-19T14:43:05;99733.06;;;39.19;19.25
62942;BME280;49042;47.318;19.874;2022-08-19T14:46:07;99726.63;;;38.83;19.14
62942;BME280;49042;47.318;19.874;2022-08-19T14:49:10;99725.38;;;38.31;19.44
62942;BME280;49042;47.318;19.874;2022-08-19T14:52:12;99721.56;;;37.85;19.49
62942;BME280;49042;47.318;19.874;2022-08-19T14:55:16;99722.12;;;37.99;20.09
62942;BME280;49042;47.318;19.874;2022-08-19T14:58:18;99711.84;;;37.83;20.36
62942;BME280;49042;47.318;19.874;2022-08-19T15:01:30;99712.22;;;37.49;20.36
62942;BME280;49042;47.318;19.874;2022-08-19T15:04:32;99700.25;;;37.22;20.42
62942;BME280;49042;47.318;19.874;2022-08-19T15:07:34;99700.28;;;37.12;21.01
62942;BME280;49042;47.318;19.874;2022-08-19T15:10:38;99698.97;;;36.96;20.75
62942;BME280;49042;47.318;19.874;2022-08-19T15:13:40;99691.56;;;36.89;20.89
62942;BME280;49042;47.318;19.874;2022-08-19T15:16:42;99694.28;;;36.89;21.22
62942;BME280;49042;47.318;19.874;2022-08-19T15:19:45;99698.97;;;36.77;21.18
62942;BME280;49042;47.318;19.874;2022-08-19T15:22:48;99688.81;;;36.69;21.02
62942;BME280;49042;47.318;19.874;2022-08-19T15:25:50;99687.41;;;36.64;21.37
62942;BME280;49042;47.318;19.874;2022-08-19T15:28:57;99699.94;;;36.46;21.83
62942;BME280;49042;47.318;19.874;2022-08-19T15:31:59;99697.59;;;36.21;21.73
62942;BME280;49042;47.318;19.874;2022-08-19T15:35:02;99701.84;;;36.04;21.75
62942;BME280;49042;47.318;19.874;2022-08-19T15:38:05;99710.50;;;35.66;21.96
62942;BME280;49042;47.318;19.874;2022-08-19T15:41:21;99712.50;;;35.64;21.97
62942;BME280;49042;47.318;19.874;2022-08-19T15:44:26;99723.56;;;35.51;22.47
62942;BME280;49042;47.318;19.874;2022-08-19T15:47:29;99727.88;;;35.42;22.58
62942;BME280;49042;47.318;19.874;2022-08-19T15:50:36;99728.50;;;35.45;22.64
62942;BME280;49042;47.318;19.874;2022-08-19T15:53:40;99733.66;;;35.49;23.97
62942;BME280;49042;47.318;19.874;2022-08-19T15:56:43;99731.72;;;35.39;23.23
62942;BME280;49042;47.318;19.874;2022-08-19T16:00:03;99736.59;;;35.24;23.29
62942;BME280;49042;47.318;19.874;2022-08-19T16:03:27;99736.81;;;35.32;22.80
62942;BME280;49042;47.318;19.874;2022-08-19T16:06:53;99739.72;;;34.86;26.35
62942;BME280;49042;47.318;19.874;2022-08-19T16:09:55;99722.34;;;34.21;27.90
62942;BME280;49042;47.318;19.874;2022-08-19T16:12:57;99732.25;;;33.40;30.61
62942;BME280;49042;47.318;19.874;2022-08-19T16:15:59;99744.66;;;33.06;31.61